sensor_id;sensor_type;location;lat;lon;timestamp;pressure;altitude;pressure_sealevel;temperature;humidity
63019;BME280;49105;46.046;10.760;2023-04-25T00:02:02;94958.94;;;9.04;64.22
63019;BME280;49105;46.046;10.760;2023-04-25T00:04:34;94961.41;;;8.95;64.36
63019;BME280;49105;46.046;10.760;2023-04-25T00:07:08;94966.69;;;8.95;63.88
63019;BME280;49105;46.046;10.760;2023-04-25T00:09:34;94965.91;;;8.94;64.33
63019;BME280;49105;46.046;10.760;2023-04-25T00:12:05;94958.81;;;8.90;64.43
63019;BME280;49105;46.046;10.760;2023-04-25T00:14:37;94955.91;;;8.91;64.04
63019;BME280;49105;46.046;10.760;2023-04-25T00:17:06;94951.41;;;8.92;63.86
63019;BME280;49105;46.046;10.760;2023-04-25T00:19:37;94951.13;;;8.93;64.23
63019;BME280;49105;46.046;10.760;2023-04-25T00:22:02;94950.31;;;8.98;64.37
63019;BME280;49105;46.046;10.760;2023-04-25T00:24:28;94953.00;;;8.93;64.27
63019;BME280;49105;46.046;10.760;2023-04-25T00:27:02;94956.44;;;8.88;64.17
63019;BME280;49105;46.046;10.760;2023-04-25T00:29:31;94951.50;;;8.82;64.06
63019;BME280;49105;46.046;10.760;2023-04-25T00:31:59;94947.97;;;8.91;64.09
63019;BME280;49105;46.046;10.760;2023-04-25T00:34:34;94939.47;;;9.00;63.53
63019;BME280;49105;46.046;10.760;2023-04-25T00:37:05;94943.47;;;8.97;64.13
63019;BME280;49105;46.046;10.760;2023-04-25T00:42:15;94937.78;;;8.80;64.03
63019;BME280;49105;46.046;10.760;2023-04-25T00:44:40;94937.75;;;8.85;64.07
63019;BME280;49105;46.046;10.760;2023-04-25T00:47:06;94936.69;;;8.86;64.08
63019;BME280;49105;46.046;10.760;2023-04-25T00:49:32;94932.50;;;8.85;64.10
63019;BME280;49105;46.046;10.760;2023-04-25T00:51:57;94936.22;;;8.79;64.08
63019;BME280;49105;46.046;10.760;2023-04-25T00:54:31;94943.66;;;8.77;64.44
63019;BME280;49105;46.046;10.760;2023-04-25T00:57:00;94939.38;;;8.81;63.54
63019;BME280;49105;46.046;10.760;2023-04-25T00:59:35;94932.81;;;8.78;63.69
63019;BME280;49105;46.046;10.760;2023-04-25T01:02:01;94929.88;;;8.80;63.67
63019;BME280;49105;46.046;10.760;2023-04-25T01:04:29;94937.78;;;8.80;64.40
63019;BME280;49105;46.046;10.760;2023-04-25T01:07:00;94929.63;;;8.81;64.03
63019;BME280;49105;46.046;10.760;2023-04-25T01:09:27;94932.19;;;8.86;63.59
63019;BME280;49105;46.046;10.760;2023-04-25T01:12:04;94930.41;;;8.82;63.69
63019;BME280;49105;46.046;10.760;2023-04-25T01:14:38;94928.25;;;8.84;64.03
63019;BME280;49105;46.046;10.760;2023-04-25T01:17:04;94918.72;;;8.88;63.56
63019;BME280;49105;46.046;10.760;2023-04-25T01:19:29;94927.34;;;8.69;64.42
63019;BME280;49105;46.046;10.760;2023-04-25T01:22:04;94929.78;;;8.61;64.76
63019;BME280;49105;46.046;10.760;2023-04-25T01:24:31;94922.56;;;8.72;64.31
63019;BME280;49105;46.046;10.760;2023-04-25T01:27:02;94919.66;;;8.73;64.22
63019;BME280;49105;46.046;10.760;2023-04-25T01:29:37;94918.59;;;8.74;64.20
63019;BME280;49105;46.046;10.760;2023-04-25T01:32:04;94918.97;;;8.62;64.29
63019;BME280;49105;46.046;10.760;2023-04-25T01:34:30;94906.56;;;8.63;64.29
63019;BME280;49105;46.046;10.760;2023-04-25T01:37:01;94905.03;;;8.57;64.41
63019;BME280;49105;46.046;10.760;2023-04-25T01:39:32;94909.34;;;8.42;65.14
63019;BME280;49105;46.046;10.760;2023-04-25T01:42:07;94907.28;;;8.39;65.23
63019;BME280;49105;46.046;10.760;2023-04-25T01:44:38;94907.19;;;8.50;64.94
63019;BME280;49105;46.046;10.760;2023-04-25T01:47:16;94905.22;;;8.65;64.08
63019;BME280;49105;46.046;10.760;2023-04-25T01:49:41;94901.47;;;8.72;63.87
63019;BME280;49105;46.046;10.760;2023-04-25T01:52:16;94899.94;;;8.65;64.37
63019;BME280;49105;46.046;10.760;2023-04-25T01:54:47;94906.56;;;8.63;64.16
63019;BME280;49105;46.046;10.760;2023-04-25T01:57:25;94903.91;;;8.63;64.18
63019;BME280;49105;46.046;10.760;2023-04-25T02:00:00;94901.81;;;8.65;64.23
63019;BME280;49105;46.046;10.760;2023-04-25T02:02:29;94895.34;;;8.76;63.81
63019;BME280;49105;46.046;10.760;2023-04-25T02:04:54;94889.88;;;8.73;63.73
63019;BME280;49105;46.046;10.760;2023-04-25T02:07:25;94890.19;;;8.66;64.18
63019;BME280;49105;46.046;10.760;2023-04-25T02:09:51;94887.31;;;8.62;64.08
63019;BME280;49105;46.046;10.760;2023-04-25T02:12:17;94885.75;;;8.61;63.82
63019;BME280;49105;46.046;10.760;2023-04-25T02:14:42;94884.78;;;8.52;64.21
63019;BME280;49105;46.046;10.760;2023-04-25T02:17:07;94889.75;;;8.54;64.32
63019;BME280;49105;46.046;10.760;2023-04-25T02:19:33;94889.56;;;8.45;64.45
63019;BME280;49105;46.046;10.760;2023-04-25T02:21:58;94885.16;;;8.30;64.94
63019;BME280;49105;46.046;10.760;2023-04-25T02:24:24;94887.81;;;8.30;64.35
63019;BME280;49105;46.046;10.760;2023-04-25T02:26:55;94870.47;;;8.24;64.86
63019;BME280;49105;46.046;10.760;2023-04-25T02:29:21;94877.59;;;8.24;64.80
63019;BME280;49105;46.046;10.760;2023-04-25T02:31:52;94871.66;;;8.08;64.82
63019;BME280;49105;46.046;10.760;2023-04-25T02:34:24;94879.38;;;7.94;64.79
63019;BME280;49105;46.046;10.760;2023-04-25T02:36:55;94869.66;;;7.89;65.29
63019;BME280;49105;46.046;10.760;2023-04-25T02:39:30;94867.25;;;7.93;64.99
63019;BME280;49105;46.046;10.760;2023-04-25T02:41:55;94873.75;;;8.06;64.68
63019;BME280;49105;46.046;10.760;2023-04-25T02:44:20;94856.31;;;8.15;64.61
63019;BME280;49105;46.046;10.760;2023-04-25T02:46:46;94862.38;;;8.15;64.64
63019;BME280;49105;46.046;10.760;2023-04-25T02:49:11;94854.47;;;8.15;65.00
63019;BME280;49105;46.046;10.760;2023-04-25T02:51:36;94848.41;;;8.15;64.84
63019;BME280;49105;46.046;10.760;2023-04-25T02:54:08;94846.25;;;8.17;64.74
63019;BME280;49105;46.046;10.760;2023-04-25T02:56:45;94848.84;;;8.22;64.53
63019;BME280;49105;46.046;10.760;2023-04-25T02:59:10;94846.19;;;8.27;64.29
63019;BME280;49105;46.046;10.760;2023-04-25T03:01:48;94841.47;;;8.24;64.26
63019;BME280;49105;46.046;10.760;2023-04-25T03:04:20;94837.22;;;8.28;64.60
63019;BME280;49105;46.046;10.760;2023-04-25T03:06:52;94825.09;;;8.27;64.30
63019;BME280;49105;46.046;10.760;2023-04-25T03:09:18;94829.38;;;8.23;64.42
63019;BME280;49105;46.046;10.760;2023-04-25T03:11:43;94823.69;;;8.06;64.55
63019;BME280;49105;46.046;10.760;2023-04-25T03:14:09;94823.00;;;7.95;65.01
63019;BME280;49105;46.046;10.760;2023-04-25T03:16:47;94818.50;;;7.95;65.03
63019;BME280;49105;46.046;10.760;2023-04-25T03:19:12;94810.59;;;7.95;64.81
63019;BME280;49105;46.046;10.760;2023-04-25T03:21:44;94819.34;;;7.86;64.85
63019;BME280;49105;46.046;10.760;2023-04-25T03:24:18;94825.97;;;7.83;65.29
63019;BME280;49105;46.046;10.760;2023-04-25T03:26:53;94826.75;;;7.84;65.03
63019;BME280;49105;46.046;10.760;2023-04-25T03:29:18;94829.59;;;7.92;64.92
63019;BME280;49105;46.046;10.760;2023-04-25T03:31:43;94832.22;;;7.92;64.79
63019;BME280;49105;46.046;10.760;2023-04-25T03:34:08;94820.56;;;8.04;64.55
63019;BME280;49105;46.046;10.760;2023-04-25T03:36:40;94825.88;;;7.99;64.20
63019;BME280;49105;46.046;10.760;2023-04-25T03:39:11;94825.16;;;7.88;64.50
63019;BME280;49105;46.046;10.760;2023-04-25T03:41:37;94831.72;;;7.90;64.51
63019;BME280;49105;46.046;10.760;2023-04-25T03:44:02;94832.75;;;7.94;64.63
63019;BME280;49105;46.046;10.760;2023-04-25T03:46:33;94843.84;;;7.91;65.11
63019;BME280;49105;46.046;10.760;2023-04-25T03:48:59;94861.75;;;7.89;64.89
63019;BME280;49105;46.046;10.760;2023-04-25T03:51:24;94860.97;;;7.89;65.02
63019;BME280;49105;46.046;10.760;2023-04-25T03:53:50;94865.41;;;7.99;65.22
63019;BME280;49105;46.046;10.760;2023-04-25T03:56:18;94864.56;;;8.03;64.79
63019;BME280;49105;46.046;10.760;2023-04-25T03:58:43;94861.84;;;8.13;64.76
63019;BME280;49105;46.046;10.760;2023-04-25T04:01:18;94850.75;;;8.16;64.04
63019;BME280;49105;46.046;10.760;2023-04-25T04:03:46;94845.72;;;8.20;64.60
63019;BME280;49105;46.046;10.760;2023-04-25T04:06:15;94849.44;;;8.19;64.64
63019;BME280;49105;46.046;10.760;2023-04-25T04:08:49;94853.25;;;8.03;64.56
63019;BME280;49105;46.046;10.760;2023-04-25T04:11:18;94857.25;;;7.90;64.92
63019;BME280;49105;46.046;10.760;2023-04-25T04:13:52;94861.72;;;7.94;65.15
63019;BME280;49105;46.046;10.760;2023-04-25T04:16:27;94869.34;;;7.96;65.12
63019;BME280;49105;46.046;10.760;2023-04-25T04:18:58;94867.53;;;7.91;64.91
63019;BME280;49105;46.046;10.760;2023-04-25T04:21:30;94861.81;;;7.79;65.50
63019;BME280;49105;46.046;10.760;2023-04-25T04:24:02;94854.16;;;7.83;65.45
63019;BME280;49105;46.046;10.760;2023-04-25T04:26:34;94851.22;;;7.89;65.33
63019;BME280;49105;46.046;10.760;2023-04-25T04:28:59;94851.41;;;7.98;65.25
63019;BME280;49105;46.046;10.760;2023-04-25T04:31:25;94859.56;;;8.02;65.24
63019;BME280;49105;46.046;10.760;2023-04-25T04:33:50;94865.41;;;7.99;65.34
63019;BME280;49105;46.046;10.760;2023-04-25T04:36:16;94869.34;;;7.96;65.24
63019;BME280;49105;46.046;10.760;2023-04-25T04:38:49;94871.22;;;7.95;65.44
63019;BME280;49105;46.046;10.760;2023-04-25T04:41:14;94877.81;;;7.93;65.17
63019;BME280;49105;46.046;10.760;2023-04-25T04:43:43;94889.91;;;7.94;65.41
63019;BME280;49105;46.046;10.760;2023-04-25T04:46:08;94884.38;;;7.95;65.70
63019;BME280;49105;46.046;10.760;2023-04-25T04:48:35;94891.25;;;7.91;65.63
63019;BME280;49105;46.046;10.760;2023-04-25T04:51:00;94884.09;;;7.97;65.43
63019;BME280;49105;46.046;10.760;2023-04-25T04:53:26;94886.91;;;8.11;65.20
63019;BME280;49105;46.046;10.760;2023-04-25T04:55:52;94893.16;;;8.20;65.33
63019;BME280;49105;46.046;10.760;2023-04-25T04:58:23;94893.66;;;8.27;64.80
63019;BME280;49105;46.046;10.760;2023-04-25T05:00:48;94887.81;;;8.30;64.85
63019;BME280;49105;46.046;10.760;2023-04-25T05:03:14;94897.03;;;8.33;65.04
63019;BME280;49105;46.046;10.760;2023-04-25T05:05:45;94892.00;;;8.36;64.85
63019;BME280;49105;46.046;10.760;2023-04-25T05:08:14;94886.72;;;8.36;65.16
63019;BME280;49105;46.046;10.760;2023-04-25T05:10:49;94889.41;;;8.31;64.75
63019;BME280;49105;46.046;10.760;2023-04-25T05:13:20;94891.75;;;8.33;64.88
63019;BME280;49105;46.046;10.760;2023-04-25T05:15:46;94889.13;;;8.33;64.82
63019;BME280;49105;46.046;10.760;2023-04-25T05:18:11;94891.75;;;8.33;64.62
63019;BME280;49105;46.046;10.760;2023-04-25T05:20:37;94889.91;;;8.33;64.51
63019;BME280;49105;46.046;10.760;2023-04-25T05:23:02;94896.75;;;8.34;64.60
63019;BME280;49105;46.046;10.760;2023-04-25T05:25:29;94901.75;;;8.36;64.37
63019;BME280;49105;46.046;10.760;2023-04-25T05:27:54;94905.72;;;8.33;64.66
63019;BME280;49105;46.046;10.760;2023-04-25T05:30:19;94904.41;;;8.31;64.85
63019;BME280;49105;46.046;10.760;2023-04-25T05:32:45;94911.81;;;8.29;64.63
63019;BME280;49105;46.046;10.760;2023-04-25T05:35:13;94909.47;;;8.22;64.79
63019;BME280;49105;46.046;10.760;2023-04-25T05:37:39;94907.88;;;8.26;64.92
63019;BME280;49105;46.046;10.760;2023-04-25T05:40:04;94905.69;;;8.38;64.93
63019;BME280;49105;46.046;10.760;2023-04-25T05:42:31;94901.50;;;8.37;64.74
63019;BME280;49105;46.046;10.760;2023-04-25T05:44:57;94898.22;;;8.51;65.08
63019;BME280;49105;46.046;10.760;2023-04-25T05:47:31;94893.00;;;8.75;64.72
63019;BME280;49105;46.046;10.760;2023-04-25T05:49:56;94891.00;;;8.90;64.33
63019;BME280;49105;46.046;10.760;2023-04-25T05:52:22;94893.47;;;9.06;64.19
63019;BME280;49105;46.046;10.760;2023-04-25T05:54:47;94883.03;;;9.19;63.30
63019;BME280;49105;46.046;10.760;2023-04-25T05:57:21;94877.19;;;9.23;63.48
63019;BME280;49105;46.046;10.760;2023-04-25T05:59:47;94870.06;;;9.23;63.40
63019;BME280;49105;46.046;10.760;2023-04-25T06:02:12;94866.50;;;9.33;63.11
63019;BME280;49105;46.046;10.760;2023-04-25T06:04:43;94858.47;;;9.43;62.91
63019;BME280;49105;46.046;10.760;2023-04-25T06:07:09;94864.44;;;9.49;62.99
63019;BME280;49105;46.046;10.760;2023-04-25T06:09:46;94859.16;;;9.49;62.89
63019;BME280;49105;46.046;10.760;2023-04-25T06:12:18;94859.06;;;9.59;63.14
63019;BME280;49105;46.046;10.760;2023-04-25T06:14:43;94852.06;;;9.68;62.73
63019;BME280;49105;46.046;10.760;2023-04-25T06:17:09;94846.13;;;9.76;62.99
63019;BME280;49105;46.046;10.760;2023-04-25T06:19:37;94847.03;;;9.85;62.10
63019;BME280;49105;46.046;10.760;2023-04-25T06:22:02;94844.75;;;9.98;62.03
63019;BME280;49105;46.046;10.760;2023-04-25T06:24:29;94843.09;;;10.02;62.27
63019;BME280;49105;46.046;10.760;2023-04-25T06:26:54;94831.44;;;10.03;62.18
63019;BME280;49105;46.046;10.760;2023-04-25T06:29:20;94838.28;;;10.04;62.30
63019;BME280;49105;46.046;10.760;2023-04-25T06:31:45;94826.59;;;10.10;61.79
63019;BME280;49105;46.046;10.760;2023-04-25T06:34:11;94830.44;;;10.17;61.76
63019;BME280;49105;46.046;10.760;2023-04-25T06:36:36;94826.41;;;10.20;61.52
63019;BME280;49105;46.046;10.760;2023-04-25T06:39:01;94817.41;;;10.21;61.51
63019;BME280;49105;46.046;10.760;2023-04-25T06:41:27;94816.00;;;10.10;62.04
63019;BME280;49105;46.046;10.760;2023-04-25T06:43:52;94811.81;;;10.09;62.59
63019;BME280;49105;46.046;10.760;2023-04-25T06:46:17;94809.97;;;10.23;61.78
63019;BME280;49105;46.046;10.760;2023-04-25T06:48:43;94804.75;;;10.37;61.36
63019;BME280;49105;46.046;10.760;2023-04-25T06:51:08;94802.97;;;10.32;60.77
63019;BME280;49105;46.046;10.760;2023-04-25T06:53:33;94794.34;;;10.40;60.79
63019;BME280;49105;46.046;10.760;2023-04-25T06:55:59;94797.41;;;10.48;60.91
63019;BME280;49105;46.046;10.760;2023-04-25T06:58:24;94786.47;;;10.54;60.49
63019;BME280;49105;46.046;10.760;2023-04-25T07:00:51;94788.69;;;10.61;60.81
63019;BME280;49105;46.046;10.760;2023-04-25T07:03:16;94788.31;;;10.67;60.90
63019;BME280;49105;46.046;10.760;2023-04-25T07:05:41;94775.00;;;10.73;60.37
63019;BME280;49105;46.046;10.760;2023-04-25T07:08:07;94782.25;;;10.81;60.38
63019;BME280;49105;46.046;10.760;2023-04-25T07:10:32;94783.63;;;10.92;60.32
63019;BME280;49105;46.046;10.760;2023-04-25T07:12:57;94784.31;;;10.98;59.93
63019;BME280;49105;46.046;10.760;2023-04-25T07:15:22;94783.59;;;11.06;59.75
63019;BME280;49105;46.046;10.760;2023-04-25T07:17:47;94775.47;;;11.16;59.45
63019;BME280;49105;46.046;10.760;2023-04-25T07:20:13;94777.31;;;11.29;58.96
63019;BME280;49105;46.046;10.760;2023-04-25T07:22:38;94773.16;;;11.37;58.90
63019;BME280;49105;46.046;10.760;2023-04-25T07:25:03;94778.03;;;11.43;58.24
63019;BME280;49105;46.046;10.760;2023-04-25T07:27:29;94775.66;;;11.56;58.05
63019;BME280;49105;46.046;10.760;2023-04-25T07:29:54;94772.00;;;11.65;56.69
63019;BME280;49105;46.046;10.760;2023-04-25T07:32:20;94761.69;;;11.64;54.20
63019;BME280;49105;46.046;10.760;2023-04-25T07:34:45;94753.16;;;11.67;54.92
63019;BME280;49105;46.046;10.760;2023-04-25T07:37:10;94752.44;;;11.75;53.94
63019;BME280;49105;46.046;10.760;2023-04-25T07:39:36;94747.31;;;11.79;53.98
63019;BME280;49105;46.046;10.760;2023-04-25T07:42:02;94746.72;;;11.82;53.72
63019;BME280;49105;46.046;10.760;2023-04-25T07:44:27;94746.94;;;11.85;52.75
63019;BME280;49105;46.046;10.760;2023-04-25T07:46:52;94745.25;;;11.89;52.52
63019;BME280;49105;46.046;10.760;2023-04-25T07:49:18;94746.69;;;11.96;52.69
63019;BME280;49105;46.046;10.760;2023-04-25T07:51:43;94741.88;;;11.98;52.67
63019;BME280;49105;46.046;10.760;2023-04-25T07:54:09;94750.28;;;12.00;52.11
63019;BME280;49105;46.046;10.760;2023-04-25T07:56:34;94743.88;;;12.01;51.79
63019;BME280;49105;46.046;10.760;2023-04-25T07:59:00;94749.56;;;12.08;51.14
63019;BME280;49105;46.046;10.760;2023-04-25T08:01:25;94736.47;;;12.11;51.19
63019;BME280;49105;46.046;10.760;2023-04-25T08:03:51;94737.44;;;12.15;50.27
63019;BME280;49105;46.046;10.760;2023-04-25T08:06:17;94730.63;;;12.23;50.81
63019;BME280;49105;46.046;10.760;2023-04-25T08:08:42;94735.31;;;12.26;49.93
63019;BME280;49105;46.046;10.760;2023-04-25T08:11:08;94720.78;;;12.24;49.01
63019;BME280;49105;46.046;10.760;2023-04-25T08:13:33;94727.69;;;12.33;49.18
63019;BME280;49105;46.046;10.760;2023-04-25T08:15:58;94724.59;;;12.40;48.30
63019;BME280;49105;46.046;10.760;2023-04-25T08:18:23;94729.13;;;12.39;47.49
63019;BME280;49105;46.046;10.760;2023-04-25T08:20:49;94730.72;;;12.49;48.37
63019;BME280;49105;46.046;10.760;2023-04-25T08:23:14;94731.25;;;12.60;47.48
63019;BME280;49105;46.046;10.760;2023-04-25T08:25:39;94722.81;;;12.66;46.85
63019;BME280;49105;46.046;10.760;2023-04-25T08:28:05;94728.63;;;12.77;46.62
63019;BME280;49105;46.046;10.760;2023-04-25T08:30:30;94729.75;;;12.85;45.88
63019;BME280;49105;46.046;10.760;2023-04-25T08:32:56;94731.66;;;12.93;45.88
63019;BME280;49105;46.046;10.760;2023-04-25T08:35:21;94731.84;;;13.05;46.80
63019;BME280;49105;46.046;10.760;2023-04-25T08:37:46;94729.03;;;13.10;46.55
63019;BME280;49105;46.046;10.760;2023-04-25T08:40:12;94727.16;;;13.11;45.78
63019;BME280;49105;46.046;10.760;2023-04-25T08:42:39;94736.22;;;13.19;46.13
63019;BME280;49105;46.046;10.760;2023-04-25T08:45:06;94737.63;;;13.16;44.96
63019;BME280;49105;46.046;10.760;2023-04-25T08:47:32;94728.44;;;13.22;45.45
63019;BME280;49105;46.046;10.760;2023-04-25T08:49:58;94731.13;;;13.31;45.16
63019;BME280;49105;46.046;10.760;2023-04-25T08:52:24;94729.41;;;13.35;44.59
63019;BME280;49105;46.046;10.760;2023-04-25T08:54:52;94715.50;;;13.38;45.04
63019;BME280;49105;46.046;10.760;2023-04-25T08:57:19;94712.06;;;13.37;44.75
63019;BME280;49105;46.046;10.760;2023-04-25T08:59:45;94711.75;;;13.39;44.14
63019;BME280;49105;46.046;10.760;2023-04-25T09:02:11;94714.06;;;13.40;44.29
63019;BME280;49105;46.046;10.760;2023-04-25T09:04:39;94712.22;;;13.50;43.74
63019;BME280;49105;46.046;10.760;2023-04-25T09:07:05;94703.59;;;13.53;43.71
63019;BME280;49105;46.046;10.760;2023-04-25T09:09:30;94697.03;;;13.59;43.63
63019;BME280;49105;46.046;10.760;2023-04-25T09:11:56;94703.47;;;13.67;43.34
63019;BME280;49105;46.046;10.760;2023-04-25T09:14:22;94694.53;;;13.71;43.12
63019;BME280;49105;46.046;10.760;2023-04-25T09:19:26;94706.25;;;13.87;43.29
63019;BME280;49105;46.046;10.760;2023-04-25T09:21:54;94697.16;;;13.88;41.57
63019;BME280;49105;46.046;10.760;2023-04-25T09:24:33;94698.88;;;13.93;41.00
63019;BME280;49105;46.046;10.760;2023-04-25T09:26:59;94697.91;;;14.06;41.12
63019;BME280;49105;46.046;10.760;2023-04-25T09:29:33;94689.25;;;14.18;40.96
63019;BME280;49105;46.046;10.760;2023-04-25T09:34:43;94686.84;;;14.34;40.32
63019;BME280;49105;46.046;10.760;2023-04-25T09:37:09;94677.28;;;14.42;39.84
63019;BME280;49105;46.046;10.760;2023-04-25T09:39:35;94683.47;;;14.63;40.49
63019;BME280;49105;46.046;10.760;2023-04-25T09:42:02;94682.47;;;14.76;40.25
63019;BME280;49105;46.046;10.760;2023-04-25T09:44:27;94687.00;;;14.76;40.56
63019;BME280;49105;46.046;10.760;2023-04-25T09:46:52;94676.84;;;14.78;40.36
63019;BME280;49105;46.046;10.760;2023-04-25T09:49:19;94688.72;;;14.80;40.69
63019;BME280;49105;46.046;10.760;2023-04-25T09:51:54;94678.09;;;14.72;39.71
63019;BME280;49105;46.046;10.760;2023-04-25T09:54:20;94665.56;;;14.72;39.77
63019;BME280;49105;46.046;10.760;2023-04-25T09:56:46;94671.72;;;14.64;40.03
63019;BME280;49105;46.046;10.760;2023-04-25T09:59:13;94673.16;;;14.61;40.40
63019;BME280;49105;46.046;10.760;2023-04-25T10:01:40;94674.25;;;14.60;40.44
63019;BME280;49105;46.046;10.760;2023-04-25T10:04:06;94682.09;;;14.48;40.29
63019;BME280;49105;46.046;10.760;2023-04-25T10:06:35;94668.19;;;14.43;40.45
63019;BME280;49105;46.046;10.760;2023-04-25T10:09:02;94673.38;;;14.39;39.39
63019;BME280;49105;46.046;10.760;2023-04-25T10:11:28;94668.81;;;14.39;39.48
63019;BME280;49105;46.046;10.760;2023-04-25T10:13:55;94672.09;;;14.45;39.71
63019;BME280;49105;46.046;10.760;2023-04-25T10:16:20;94674.28;;;14.52;39.86
63019;BME280;49105;46.046;10.760;2023-04-25T10:18:46;94671.91;;;14.59;39.28
63019;BME280;49105;46.046;10.760;2023-04-25T10:21:11;94663.88;;;14.68;39.14
63019;BME280;49105;46.046;10.760;2023-04-25T10:23:37;94660.19;;;14.81;39.23
63019;BME280;49105;46.046;10.760;2023-04-25T10:26:03;94665.72;;;14.97;39.29
63019;BME280;49105;46.046;10.760;2023-04-25T10:28:29;94661.59;;;15.08;38.98
63019;BME280;49105;46.046;10.760;2023-04-25T10:33:29;94668.09;;;15.19;38.28
63019;BME280;49105;46.046;10.760;2023-04-25T10:35:54;94660.81;;;15.28;38.58
63019;BME280;49105;46.046;10.760;2023-04-25T10:38:22;94654.75;;;15.40;38.35
63019;BME280;49105;46.046;10.760;2023-04-25T10:41:03;94664.38;;;15.53;38.76
63019;BME280;49105;46.046;10.760;2023-04-25T10:43:40;94652.03;;;15.49;38.37
63019;BME280;49105;46.046;10.760;2023-04-25T10:46:18;94657.75;;;15.38;38.43
63019;BME280;49105;46.046;10.760;2023-04-25T10:48:48;94654.06;;;15.31;38.70
63019;BME280;49105;46.046;10.760;2023-04-25T10:51:21;94658.94;;;15.29;38.97
63019;BME280;49105;46.046;10.760;2023-04-25T10:53:47;94660.81;;;15.28;39.01
63019;BME280;49105;46.046;10.760;2023-04-25T10:56:21;94649.75;;;15.38;38.92
63019;BME280;49105;46.046;10.760;2023-04-25T10:58:47;94646.59;;;15.57;38.73
63019;BME280;49105;46.046;10.760;2023-04-25T11:01:13;94641.78;;;15.72;38.81
63019;BME280;49105;46.046;10.760;2023-04-25T11:03:42;94643.38;;;15.73;38.32
63019;BME280;49105;46.046;10.760;2023-04-25T11:06:55;94642.91;;;15.71;38.21
63019;BME280;49105;46.046;10.760;2023-04-25T11:08:54;94648.22;;;15.71;38.42
63019;BME280;49105;46.046;10.760;2023-04-25T11:11:20;94648.56;;;15.69;38.61
63019;BME280;49105;46.046;10.760;2023-04-25T11:13:48;94639.91;;;15.72;38.83
63019;BME280;49105;46.046;10.760;2023-04-25T11:16:14;94642.50;;;15.81;38.84
63019;BME280;49105;46.046;10.760;2023-04-25T11:18:41;94645.28;;;15.84;38.71
63019;BME280;49105;46.046;10.760;2023-04-25T11:21:06;94626.84;;;16.04;38.60
63019;BME280;49105;46.046;10.760;2023-04-25T11:23:32;94626.47;;;16.38;38.60
63019;BME280;49105;46.046;10.760;2023-04-25T11:25:57;94636.56;;;16.57;38.22
63019;BME280;49105;46.046;10.760;2023-04-25T11:28:22;94631.56;;;16.56;38.08
63019;BME280;49105;46.046;10.760;2023-04-25T11:30:51;94635.13;;;16.35;37.99
63019;BME280;49105;46.046;10.760;2023-04-25T11:33:16;94632.56;;;16.15;38.02
63019;BME280;49105;46.046;10.760;2023-04-25T11:35:42;94641.41;;;15.94;38.41
63019;BME280;49105;46.046;10.760;2023-04-25T11:38:07;94653.44;;;15.67;37.90
63019;BME280;49105;46.046;10.760;2023-04-25T11:40:32;94666.97;;;15.41;38.06
63019;BME280;49105;46.046;10.760;2023-04-25T11:42:59;94695.53;;;15.20;38.11
63019;BME280;49105;46.046;10.760;2023-04-25T11:45:25;94697.91;;;14.92;39.07
63019;BME280;49105;46.046;10.760;2023-04-25T11:47:50;94710.28;;;14.58;41.27
63019;BME280;49105;46.046;10.760;2023-04-25T11:50:15;94700.66;;;14.36;42.44
63019;BME280;49105;46.046;10.760;2023-04-25T11:52:45;94698.50;;;14.21;43.64
63019;BME280;49105;46.046;10.760;2023-04-25T11:55:14;94731.72;;;13.97;45.81
63019;BME280;49105;46.046;10.760;2023-04-25T11:57:40;94735.97;;;13.72;47.78
63019;BME280;49105;46.046;10.760;2023-04-25T12:00:27;94761.16;;;13.49;48.67
63019;BME280;49105;46.046;10.760;2023-04-25T12:02:55;94777.44;;;12.99;52.42
63019;BME280;49105;46.046;10.760;2023-04-25T12:05:26;94771.88;;;12.69;53.56
63019;BME280;49105;46.046;10.760;2023-04-25T12:07:52;94767.13;;;12.57;53.40
63019;BME280;49105;46.046;10.760;2023-04-25T12:10:17;94755.88;;;12.52;53.54
63019;BME280;49105;46.046;10.760;2023-04-25T12:12:44;94736.34;;;12.48;54.06
63019;BME280;49105;46.046;10.760;2023-04-25T12:15:10;94739.47;;;12.50;54.39
63019;BME280;49105;46.046;10.760;2023-04-25T12:17:36;94743.38;;;12.52;54.50
63019;BME280;49105;46.046;10.760;2023-04-25T12:20:06;94758.84;;;12.59;55.06
63019;BME280;49105;46.046;10.760;2023-04-25T12:22:32;94774.34;;;12.65;55.63
63019;BME280;49105;46.046;10.760;2023-04-25T12:24:58;94791.56;;;12.68;55.58
63019;BME280;49105;46.046;10.760;2023-04-25T12:27:23;94783.38;;;12.56;55.88
63019;BME280;49105;46.046;10.760;2023-04-25T12:29:52;94775.69;;;12.54;55.96
63019;BME280;49105;46.046;10.760;2023-04-25T12:32:18;94774.75;;;12.50;56.32
63019;BME280;49105;46.046;10.760;2023-04-25T12:34:43;94782.38;;;12.43;56.64
63019;BME280;49105;46.046;10.760;2023-04-25T12:37:09;94794.38;;;12.40;57.64
63019;BME280;49105;46.046;10.760;2023-04-25T12:39:34;94802.34;;;12.40;57.23
63019;BME280;49105;46.046;10.760;2023-04-25T12:41:59;94813.31;;;12.25;57.88
63019;BME280;49105;46.046;10.760;2023-04-25T12:44:24;94813.13;;;12.22;57.65
63019;BME280;49105;46.046;10.760;2023-04-25T12:46:50;94822.75;;;12.31;58.06
63019;BME280;49105;46.046;10.760;2023-04-25T12:49:16;94821.13;;;12.53;57.91
63019;BME280;49105;46.046;10.760;2023-04-25T12:51:41;94817.44;;;12.62;57.95
63019;BME280;49105;46.046;10.760;2023-04-25T12:54:06;94823.88;;;12.70;58.06
63019;BME280;49105;46.046;10.760;2023-04-25T12:56:32;94818.56;;;13.01;58.57
63019;BME280;49105;46.046;10.760;2023-04-25T12:58:57;94831.94;;;13.27;58.36
63019;BME280;49105;46.046;10.760;2023-04-25T13:01:23;94825.09;;;13.52;58.79
63019;BME280;49105;46.046;10.760;2023-04-25T13:03:49;94829.22;;;13.67;57.92
63019;BME280;49105;46.046;10.760;2023-04-25T13:06:15;94824.66;;;13.76;58.32
63019;BME280;49105;46.046;10.760;2023-04-25T13:08:40;94828.72;;;13.82;58.86